Time;durP1;ratioP1;P1;durP2;ratioP2;P2;SDS_P1;SDS_P2;PMS_P1;PMS_P2;Temp;Humidity;BMP_temperature;BMP_pressure;BME280_temperature;BME280_humidity;BME280_pressure;Samples;Min_cycle;Max_cycle;Signal;HPM_P1;HPM_P2
2022/04/11 00:00:03;;;;;;;;;;;22.30;28.20;;;;;;464553;256;991;-64
2022/04/11 00:02:04;;;;;;;;;;;22.30;28.20;;;;;;464513;256;1229;-64
2022/04/11 00:04:06;;;;;;;;;;;22.30;28.20;;;;;;464502;256;1098;-64
2022/04/11 00:06:07;;;;;;;;;;;22.10;28.30;;;;;;464497;256;1221;-64
2022/04/11 00:08:08;;;;;;;;;;;22.20;28.30;;;;;;464496;256;1128;-64
2022/04/11 00:10:10;;;;;;;;;;;22.10;28.40;;;;;;464538;256;1122;-64
2022/04/11 00:12:11;;;;;;;;;;;22.10;28.40;;;;;;464494;256;1196;-64
2022/04/11 00:14:12;;;;;;;;;;;22.10;28.40;;;;;;464837;256;1069;-64
2022/04/11 00:16:14;;;;;;;;;;;22.10;28.30;;;;;;464519;257;2143;-64
2022/04/11 00:18:15;;;;;;;;;;;22.10;28.30;;;;;;464524;256;1118;-64
2022/04/11 00:20:16;;;;;;;;;;;22.10;28.20;;;;;;464514;256;1065;-64
2022/04/11 00:22:18;;;;;;;;;;;22.10;28.30;;;;;;464525;256;1293;-64
2022/04/11 00:24:19;;;;;;;;;;;22.10;28.20;;;;;;464477;256;1094;-64
2022/04/11 00:26:20;;;;;;;;;;;22.10;28.20;;;;;;464502;256;1170;-64
2022/04/11 00:28:22;;;;;;;;;;;22.10;28.20;;;;;;464540;256;1142;-64
2022/04/11 00:30:23;;;;;;;;;;;22.00;28.30;;;;;;464468;256;1146;-64
2022/04/11 00:32:24;;;;;;;;;;;22.10;28.20;;;;;;464452;256;1218;-64
2022/04/11 00:34:26;;;;;;;;;;;22.10;28.10;;;;;;464619;256;1097;-64
2022/04/11 00:36:27;;;;;;;;;;;22.10;28.10;;;;;;464615;256;2166;-64
2022/04/11 00:38:28;;;;;;;;;;;22.10;28.00;;;;;;464520;256;1115;-64
2022/04/11 00:40:30;;;;;;;;;;;22.10;28.10;;;;;;464512;256;1228;-64
2022/04/11 00:42:32;;;;;;;;;;;22.10;28.00;;;;;;464397;256;1235;-64
2022/04/11 00:44:33;;;;;;;;;;;22.10;28.00;;;;;;464545;256;1190;-64
2022/04/11 00:46:34;;;;;;;;;;;22.20;28.00;;;;;;464495;256;1221;-64
2022/04/11 00:48:35;;;;;;;;;;;22.10;28.00;;;;;;464475;256;1044;-64
2022/04/11 00:50:37;;;;;;;;;;;22.20;28.00;;;;;;464549;256;996;-64
2022/04/11 00:52:38;;;;;;;;;;;22.20;27.80;;;;;;464484;256;1184;-64
2022/04/11 00:54:39;;;;;;;;;;;22.10;27.90;;;;;;464526;256;1037;-65
2022/04/11 00:56:41;;;;;;;;;;;22.20;27.80;;;;;;464474;256;2138;-64
2022/04/11 00:58:42;;;;;;;;;;;22.10;27.90;;;;;;464574;256;1075;-64
2022/04/11 01:00:43;;;;;;;;;;;22.10;27.90;;;;;;464482;256;1074;-64
2022/04/11 01:02:44;;;;;;;;;;;22.10;27.80;;;;;;464543;256;1218;-65
2022/04/11 01:04:46;;;;;;;;;;;22.10;27.80;;;;;;464501;256;1019;-64
2022/04/11 01:06:47;;;;;;;;;;;22.10;27.80;;;;;;464380;256;1139;-64
2022/04/11 01:08:48;;;;;;;;;;;22.20;27.80;;;;;;464469;256;1109;-65
2022/04/11 01:10:50;;;;;;;;;;;22.20;27.80;;;;;;464497;256;1107;-64
2022/04/11 01:12:51;;;;;;;;;;;22.10;27.80;;;;;;464547;256;1104;-64
2022/04/11 01:14:52;;;;;;;;;;;22.10;27.80;;;;;;464505;256;1149;-64
2022/04/11 01:16:56;;;;;;;;;;;22.10;27.80;;;;;;464332;256;2202;-64
2022/04/11 01:18:55;;;;;;;;;;;22.10;27.80;;;;;;464373;257;1315;-64
2022/04/11 01:20:56;;;;;;;;;;;22.20;27.80;;;;;;464585;256;1369;-64
2022/04/11 01:22:58;;;;;;;;;;;22.20;27.70;;;;;;464490;256;1154;-64
2022/04/11 01:24:59;;;;;;;;;;;22.10;27.70;;;;;;464663;256;1052;-64
2022/04/11 01:27:00;;;;;;;;;;;22.20;27.70;;;;;;464433;256;1130;-64
2022/04/11 01:29:04;;;;;;;;;;;22.00;27.70;;;;;;464505;256;1255;-64
2022/04/11 01:31:04;;;;;;;;;;;22.10;27.70;;;;;;464427;256;1429;-64
2022/04/11 01:33:05;;;;;;;;;;;22.10;27.60;;;;;;464643;256;984;-64
2022/04/11 01:35:06;;;;;;;;;;;22.20;27.70;;;;;;464614;256;982;-64
2022/04/11 01:37:07;;;;;;;;;;;22.20;27.60;;;;;;464449;256;2206;-64
2022/04/11 01:39:09;;;;;;;;;;;22.20;27.60;;;;;;464496;256;1088;-64
2022/04/11 01:41:10;;;;;;;;;;;22.20;27.60;;;;;;464446;256;1320;-64
2022/04/11 01:43:12;;;;;;;;;;;22.20;27.60;;;;;;464525;256;1101;-64
2022/04/11 01:45:13;;;;;;;;;;;22.10;27.60;;;;;;464590;256;1065;-64
2022/04/11 01:47:14;;;;;;;;;;;22.10;27.60;;;;;;464445;256;1262;-64
2022/04/11 01:49:15;;;;;;;;;;;22.20;27.60;;;;;;464507;256;1049;-64
2022/04/11 01:51:17;;;;;;;;;;;22.10;27.60;;;;;;464419;256;1214;-64
2022/04/11 01:53:18;;;;;;;;;;;22.10;27.60;;;;;;464454;256;1149;-64
2022/04/11 01:55:20;;;;;;;;;;;22.20;27.60;;;;;;464565;256;1089;-64
2022/04/11 01:57:21;;;;;;;;;;;22.20;27.50;;;;;;464496;256;2136;-64
2022/04/11 01:59:22;;;;;;;;;;;22.20;27.50;;;;;;464561;256;1222;-64
2022/04/11 02:01:23;;;;;;;;;;;22.10;27.60;;;;;;464471;256;1317;-64
2022/04/11 02:03:25;;;;;;;;;;;22.00;27.60;;;;;;464449;256;1087;-64
2022/04/11 02:05:26;;;;;;;;;;;22.10;27.60;;;;;;464515;256;1012;-64
2022/04/11 02:07:27;;;;;;;;;;;22.00;27.60;;;;;;464536;256;1183;-64
2022/04/11 02:09:29;;;;;;;;;;;22.00;27.60;;;;;;464632;256;1094;-64
2022/04/11 02:11:30;;;;;;;;;;;22.00;27.50;;;;;;464480;256;1184;-64
2022/04/11 02:13:32;;;;;;;;;;;22.00;27.60;;;;;;464534;256;1043;-64
2022/04/11 02:15:33;;;;;;;;;;;22.00;27.50;;;;;;464444;257;1461;-64
2022/04/11 02:17:36;;;;;;;;;;;21.90;27.60;;;;;;464521;256;2202;-64
2022/04/11 02:19:37;;;;;;;;;;;22.00;27.60;;;;;;464576;256;938;-64
2022/04/11 02:21:39;;;;;;;;;;;22.00;27.50;;;;;;464400;256;1229;-64
2022/04/11 02:23:40;;;;;;;;;;;22.00;27.50;;;;;;464499;256;1466;-64
2022/04/11 02:25:41;;;;;;;;;;;22.00;27.60;;;;;;464460;256;1239;-64
2022/04/11 02:27:43;;;;;;;;;;;22.00;27.50;;;;;;464473;256;1145;-64
2022/04/11 02:29:44;;;;;;;;;;;22.00;27.50;;;;;;464479;256;1000;-64
2022/04/11 02:31:45;;;;;;;;;;;22.00;27.40;;;;;;464389;256;1177;-64
2022/04/11 02:33:47;;;;;;;;;;;21.90;27.50;;;;;;464455;256;1095;-64
2022/04/11 02:35:48;;;;;;;;;;;22.00;27.40;;;;;;464435;256;1255;-64
2022/04/11 02:37:49;;;;;;;;;;;22.00;27.40;;;;;;464497;256;2167;-64
2022/04/11 02:39:51;;;;;;;;;;;22.00;27.40;;;;;;464485;256;1039;-64
2022/04/11 02:41:52;;;;;;;;;;;21.90;27.50;;;;;;464465;256;1349;-64
2022/04/11 02:43:53;;;;;;;;;;;22.00;27.50;;;;;;464444;256;1111;-64
2022/04/11 02:45:55;;;;;;;;;;;22.00;27.40;;;;;;464537;256;1170;-64
2022/04/11 02:47:56;;;;;;;;;;;22.00;27.40;;;;;;464476;256;1229;-64
2022/04/11 02:49:57;;;;;;;;;;;22.10;27.40;;;;;;464514;256;1052;-64
2022/04/11 02:51:59;;;;;;;;;;;22.10;27.30;;;;;;464589;256;1323;-64
2022/04/11 02:54:02;;;;;;;;;;;22.20;27.20;;;;;;464541;256;1194;-64
2022/04/11 02:56:02;;;;;;;;;;;22.50;26.90;;;;;;464473;256;1375;-64
2022/04/11 02:58:03;;;;;;;;;;;22.50;26.90;;;;;;464500;256;2206;-64
2022/04/11 03:00:05;;;;;;;;;;;22.70;26.80;;;;;;464529;256;1092;-65
2022/04/11 03:02:06;;;;;;;;;;;22.70;26.70;;;;;;464569;256;1187;-65
2022/04/11 03:04:07;;;;;;;;;;;22.90;26.70;;;;;;464587;256;1009;-64
2022/04/11 03:06:09;;;;;;;;;;;23.00;26.50;;;;;;464511;256;1266;-65
2022/04/11 03:08:10;;;;;;;;;;;23.00;26.40;;;;;;464537;256;1201;-65
2022/04/11 03:10:11;;;;;;;;;;;23.10;26.50;;;;;;464486;256;1096;-65
2022/04/11 03:12:12;;;;;;;;;;;23.20;26.40;;;;;;464635;256;1083;-64
2022/04/11 03:14:14;;;;;;;;;;;23.10;26.40;;;;;;464511;256;1081;-64
2022/04/11 03:16:15;;;;;;;;;;;23.00;26.40;;;;;;464455;256;1234;-64
2022/04/11 03:18:16;;;;;;;;;;;23.00;26.40;;;;;;464522;256;2203;-64
2022/04/11 03:20:18;;;;;;;;;;;22.90;26.50;;;;;;464520;256;965;-65
2022/04/11 03:22:19;;;;;;;;;;;22.80;26.60;;;;;;464490;256;1196;-64
2022/04/11 03:24:20;;;;;;;;;;;22.80;26.70;;;;;;464545;256;1176;-65
2022/04/11 03:26:22;;;;;;;;;;;22.70;26.80;;;;;;464497;256;1231;-64
2022/04/11 03:28:23;;;;;;;;;;;22.50;26.90;;;;;;464618;256;986;-64
2022/04/11 03:30:25;;;;;;;;;;;22.40;27.00;;;;;;464527;256;1229;-64
2022/04/11 03:32:26;;;;;;;;;;;22.30;27.10;;;;;;464487;257;1244;-64
2022/04/11 03:34:27;;;;;;;;;;;22.30;27.20;;;;;;464532;256;1087;-64
2022/04/11 03:36:28;;;;;;;;;;;22.30;27.20;;;;;;464488;256;1141;-64
2022/04/11 03:38:30;;;;;;;;;;;22.20;27.20;;;;;;464509;256;2199;-64
2022/04/11 03:40:31;;;;;;;;;;;22.10;27.20;;;;;;464583;256;988;-64
2022/04/11 03:42:32;;;;;;;;;;;22.10;27.20;;;;;;464440;256;1109;-64
2022/04/11 03:44:35;;;;;;;;;;;22.20;27.20;;;;;;464497;256;1119;-64
2022/04/11 03:46:36;;;;;;;;;;;22.10;27.30;;;;;;464473;256;1349;-64
2022/04/11 03:48:37;;;;;;;;;;;22.10;27.20;;;;;;464491;256;959;-64
2022/04/11 03:50:39;;;;;;;;;;;22.10;27.30;;;;;;464489;256;1082;-64
2022/04/11 03:52:40;;;;;;;;;;;22.00;27.30;;;;;;464478;256;1251;-65
2022/04/11 03:54:41;;;;;;;;;;;22.00;27.30;;;;;;464454;256;970;-64
2022/04/11 03:56:42;;;;;;;;;;;22.20;27.20;;;;;;464422;256;1293;-64
2022/04/11 03:58:44;;;;;;;;;;;22.10;27.20;;;;;;464521;256;2139;-64
2022/04/11 04:00:45;;;;;;;;;;;22.10;27.30;;;;;;464479;256;993;-64
2022/04/11 04:02:46;;;;;;;;;;;22.10;27.30;;;;;;464508;256;1235;-64
2022/04/11 04:04:47;;;;;;;;;;;22.00;27.20;;;;;;464507;256;1137;-64
2022/04/11 04:06:49;;;;;;;;;;;22.00;27.30;;;;;;464462;256;1232;-64
2022/04/11 04:08:50;;;;;;;;;;;22.00;27.30;;;;;;464533;256;1211;-64
2022/04/11 04:10:51;;;;;;;;;;;22.10;27.30;;;;;;464442;256;1228;-64
2022/04/11 04:12:53;;;;;;;;;;;22.00;27.40;;;;;;464502;256;1221;-64
2022/04/11 04:14:54;;;;;;;;;;;22.00;27.30;;;;;;464443;256;1088;-64
2022/04/11 04:16:55;;;;;;;;;;;21.90;27.40;;;;;;464368;256;1376;-64
2022/04/11 04:18:57;;;;;;;;;;;21.90;27.40;;;;;;464431;256;2199;-64
2022/04/11 04:20:58;;;;;;;;;;;22.00;27.40;;;;;;464369;256;1208;-64
2022/04/11 04:22:59;;;;;;;;;;;22.00;27.30;;;;;;464312;256;1104;-64
2022/04/11 04:25:01;;;;;;;;;;;22.00;27.30;;;;;;464378;256;987;-63
2022/04/11 04:27:02;;;;;;;;;;;22.00;27.40;;;;;;464286;256;1193;-64
2022/04/11 04:29:03;;;;;;;;;;;21.90;27.40;;;;;;464352;256;1072;-64
2022/04/11 04:31:05;;;;;;;;;;;21.90;27.40;;;;;;464323;256;1120;-64
2022/04/11 04:33:06;;;;;;;;;;;22.00;27.30;;;;;;464353;256;1295;-64
2022/04/11 04:35:07;;;;;;;;;;;22.00;27.30;;;;;;464436;256;1238;-64
2022/04/11 04:37:09;;;;;;;;;;;22.00;27.30;;;;;;464305;256;1447;-63
2022/04/11 04:39:10;;;;;;;;;;;22.20;27.10;;;;;;464260;256;2209;-64
2022/04/11 04:41:11;;;;;;;;;;;22.30;27.00;;;;;;464240;256;1113;-64
2022/04/11 04:43:13;;;;;;;;;;;22.40;26.90;;;;;;464248;256;1002;-64
2022/04/11 04:45:14;;;;;;;;;;;22.50;26.80;;;;;;464321;256;1157;-64
2022/04/11 04:47:16;;;;;;;;;;;22.70;26.70;;;;;;464419;256;1158;-64
2022/04/11 04:49:17;;;;;;;;;;;22.80;26.60;;;;;;464350;256;1151;-63
2022/04/11 04:51:18;;;;;;;;;;;22.90;26.50;;;;;;464283;256;1233;-63
2022/04/11 04:53:20;;;;;;;;;;;23.00;26.40;;;;;;464322;256;1245;-64
2022/04/11 04:55:22;;;;;;;;;;;23.10;26.40;;;;;;464373;256;1217;-64
2022/04/11 04:57:22;;;;;;;;;;;23.40;26.00;;;;;;464296;257;1863;-64
2022/04/11 04:59:24;;;;;;;;;;;23.30;26.20;;;;;;464206;256;2214;-64
2022/04/11 05:01:25;;;;;;;;;;;23.10;26.30;;;;;;464235;256;1131;-64
2022/04/11 05:03:26;;;;;;;;;;;23.20;26.30;;;;;;464301;256;1067;-64
2022/04/11 05:05:28;;;;;;;;;;;23.10;26.40;;;;;;464267;256;1025;-64
2022/04/11 05:07:29;;;;;;;;;;;22.90;26.50;;;;;;464329;256;1089;-64
2022/04/11 05:09:30;;;;;;;;;;;22.80;26.60;;;;;;464230;256;1238;-64
2022/04/11 05:11:32;;;;;;;;;;;22.70;26.80;;;;;;464189;256;1199;-64
2022/04/11 05:13:33;;;;;;;;;;;22.60;26.80;;;;;;464205;256;1065;-64
2022/04/11 05:15:34;;;;;;;;;;;22.60;26.80;;;;;;464254;256;1033;-64
2022/04/11 05:17:35;;;;;;;;;;;22.50;26.90;;;;;;464262;256;1113;-64
2022/04/11 05:19:37;;;;;;;;;;;22.40;27.00;;;;;;464192;256;2131;-64
2022/04/11 05:21:38;;;;;;;;;;;22.40;27.10;;;;;;464124;256;1045;-64
2022/04/11 05:23:41;;;;;;;;;;;22.30;27.10;;;;;;464192;256;1084;-64
2022/04/11 05:25:41;;;;;;;;;;;22.20;27.10;;;;;;464109;257;1315;-64
2022/04/11 05:27:42;;;;;;;;;;;22.20;27.20;;;;;;464069;256;1073;-64
2022/04/11 05:29:43;;;;;;;;;;;22.20;27.20;;;;;;464083;256;1066;-64
2022/04/11 05:31:45;;;;;;;;;;;22.20;27.20;;;;;;464025;256;1065;-64
2022/04/11 05:33:46;;;;;;;;;;;22.20;27.30;;;;;;464052;256;1101;-64
2022/04/11 05:35:47;;;;;;;;;;;22.20;27.20;;;;;;464069;256;1123;-63
2022/04/11 05:37:49;;;;;;;;;;;22.20;27.20;;;;;;464177;256;1076;-64
2022/04/11 05:39:50;;;;;;;;;;;22.20;27.20;;;;;;464237;256;2211;-64
2022/04/11 05:41:51;;;;;;;;;;;22.20;27.20;;;;;;464166;256;1328;-64
2022/04/11 05:43:53;;;;;;;;;;;22.10;27.30;;;;;;464137;256;1050;-64
2022/04/11 05:45:54;;;;;;;;;;;22.20;27.20;;;;;;464213;256;1274;-64
2022/04/11 05:47:55;;;;;;;;;;;22.10;27.30;;;;;;464175;256;1444;-64
2022/04/11 05:49:56;;;;;;;;;;;22.10;27.30;;;;;;464145;256;1206;-63
2022/04/11 05:51:58;;;;;;;;;;;22.10;27.30;;;;;;464147;256;1445;-64
2022/04/11 05:53:59;;;;;;;;;;;22.10;27.30;;;;;;464163;256;1189;-64
2022/04/11 05:56:00;;;;;;;;;;;22.10;27.30;;;;;;464135;256;1271;-64
2022/04/11 05:58:02;;;;;;;;;;;22.20;27.30;;;;;;464103;256;1080;-64
2022/04/11 06:00:03;;;;;;;;;;;22.10;27.30;;;;;;463960;256;2206;-63
2022/04/11 06:02:04;;;;;;;;;;;22.20;27.30;;;;;;463970;256;1245;-64
2022/04/11 06:04:06;;;;;;;;;;;22.10;27.40;;;;;;464153;256;1103;-64
2022/04/11 06:06:07;;;;;;;;;;;22.10;27.40;;;;;;464093;256;1241;-64
2022/04/11 06:08:08;;;;;;;;;;;22.10;27.50;;;;;;463997;256;1211;-64
2022/04/11 06:10:10;;;;;;;;;;;22.10;27.50;;;;;;463877;256;1188;-64
2022/04/11 06:12:11;;;;;;;;;;;22.00;27.60;;;;;;463898;256;1189;-64
2022/04/11 06:14:12;;;;;;;;;;;21.90;27.60;;;;;;464011;256;1257;-64
2022/04/11 06:16:14;;;;;;;;;;;21.90;27.60;;;;;;463882;256;1183;-64
2022/04/11 06:18:15;;;;;;;;;;;21.90;27.70;;;;;;463961;256;2134;-64
2022/04/11 06:20:17;;;;;;;;;;;22.00;27.70;;;;;;464014;256;1076;-64
2022/04/11 06:22:17;;;;;;;;;;;21.80;27.80;;;;;;463922;256;1421;-64
2022/04/11 06:24:19;;;;;;;;;;;21.90;27.70;;;;;;463974;256;1201;-64
2022/04/11 06:26:20;;;;;;;;;;;21.90;27.80;;;;;;463744;256;1331;-64
2022/04/11 06:28:22;;;;;;;;;;;21.90;27.70;;;;;;463671;256;1096;-64
2022/04/11 06:30:23;;;;;;;;;;;21.90;27.80;;;;;;463792;256;1114;-64
2022/04/11 06:32:24;;;;;;;;;;;21.80;27.80;;;;;;463711;256;1241;-64
2022/04/11 06:34:25;;;;;;;;;;;21.80;27.80;;;;;;463840;256;1248;-64
2022/04/11 06:36:27;;;;;;;;;;;21.80;27.80;;;;;;463935;256;1168;-64
2022/04/11 06:38:28;;;;;;;;;;;21.90;27.80;;;;;;463861;256;2191;-64
2022/04/11 06:40:29;;;;;;;;;;;21.80;27.80;;;;;;463840;256;1218;-64
2022/04/11 06:42:31;;;;;;;;;;;21.80;27.80;;;;;;463776;256;1215;-64
2022/04/11 06:44:33;;;;;;;;;;;21.80;27.80;;;;;;463741;256;1068;-64
2022/04/11 06:46:34;;;;;;;;;;;21.90;27.80;;;;;;463795;256;1350;-64
2022/04/11 06:48:35;;;;;;;;;;;21.70;27.90;;;;;;463930;256;1073;-64
2022/04/11 06:50:36;;;;;;;;;;;21.80;27.90;;;;;;463744;256;1094;-64
2022/04/11 06:52:37;;;;;;;;;;;21.80;28.00;;;;;;463869;256;1261;-64
2022/04/11 06:54:39;;;;;;;;;;;21.90;27.90;;;;;;463753;256;1215;-64
2022/04/11 06:56:40;;;;;;;;;;;22.00;27.70;;;;;;463704;256;1139;-64
2022/04/11 06:58:41;;;;;;;;;;;21.90;27.90;;;;;;463706;256;2131;-64
2022/04/11 07:00:43;;;;;;;;;;;21.90;27.90;;;;;;463815;256;1183;-64
2022/04/11 07:02:44;;;;;;;;;;;21.80;27.90;;;;;;463902;256;1148;-64
2022/04/11 07:04:45;;;;;;;;;;;21.80;27.90;;;;;;463749;256;1198;-64
2022/04/11 07:06:46;;;;;;;;;;;21.80;28.00;;;;;;463765;256;1316;-64
2022/04/11 07:08:48;;;;;;;;;;;21.80;28.10;;;;;;463889;256;1082;-64
2022/04/11 07:10:49;;;;;;;;;;;21.80;28.10;;;;;;463855;256;1246;-64
2022/04/11 07:12:50;;;;;;;;;;;21.80;28.10;;;;;;463753;256;1071;-64
2022/04/11 07:14:53;;;;;;;;;;;21.80;28.10;;;;;;463770;256;1095;-64
2022/04/11 07:16:53;;;;;;;;;;;21.80;28.00;;;;;;463651;256;1368;-64
2022/04/11 07:18:54;;;;;;;;;;;21.80;28.00;;;;;;463709;256;2210;-64
2022/04/11 07:20:56;;;;;;;;;;;21.90;28.00;;;;;;463700;256;1155;-64
2022/04/11 07:22:57;;;;;;;;;;;21.90;28.00;;;;;;463771;256;1088;-64
2022/04/11 07:24:58;;;;;;;;;;;21.90;28.00;;;;;;463571;256;1221;-64
2022/04/11 07:27:00;;;;;;;;;;;21.80;28.10;;;;;;463544;256;1394;-64
2022/04/11 07:29:01;;;;;;;;;;;21.90;28.10;;;;;;463622;256;1098;-64
2022/04/11 07:31:02;;;;;;;;;;;21.90;28.00;;;;;;463521;256;1337;-64
2022/04/11 07:33:04;;;;;;;;;;;21.80;28.10;;;;;;463683;256;1256;-64
2022/04/11 07:35:05;;;;;;;;;;;21.80;28.10;;;;;;463659;256;1120;-64
2022/04/11 07:37:07;;;;;;;;;;;21.90;28.10;;;;;;463650;256;1203;-63
2022/04/11 07:39:08;;;;;;;;;;;22.00;27.90;;;;;;463674;256;2187;-64
2022/04/11 07:41:09;;;;;;;;;;;21.90;28.00;;;;;;463781;256;1309;-64
2022/04/11 07:43:10;;;;;;;;;;;21.90;28.00;;;;;;463697;256;1070;-64
2022/04/11 07:45:12;;;;;;;;;;;22.00;28.00;;;;;;463541;256;1059;-64
2022/04/11 07:47:13;;;;;;;;;;;22.00;27.90;;;;;;463690;256;1196;-64
2022/04/11 07:49:14;;;;;;;;;;;21.90;28.00;;;;;;463736;256;1090;-64
2022/04/11 07:51:16;;;;;;;;;;;21.90;28.10;;;;;;463661;256;1229;-64
2022/04/11 07:53:17;;;;;;;;;;;22.00;28.10;;;;;;463592;256;1221;-64
2022/04/11 07:55:18;;;;;;;;;;;22.00;28.00;;;;;;463594;256;1337;-64
2022/04/11 07:57:20;;;;;;;;;;;22.10;27.90;;;;;;463510;256;1194;-64
2022/04/11 07:59:21;;;;;;;;;;;22.00;28.00;;;;;;463512;256;2198;-64
2022/04/11 08:01:22;;;;;;;;;;;22.10;28.10;;;;;;463560;256;1479;-64
2022/04/11 08:03:23;;;;;;;;;;;22.10;28.10;;;;;;463554;256;1104;-64
2022/04/11 08:05:25;;;;;;;;;;;22.10;28.10;;;;;;463432;256;1340;-64
2022/04/11 08:07:26;;;;;;;;;;;21.90;28.20;;;;;;463507;256;1227;-64
2022/04/11 08:09:27;;;;;;;;;;;22.00;28.20;;;;;;463609;256;1069;-64
2022/04/11 08:11:29;;;;;;;;;;;22.00;28.30;;;;;;463576;256;1229;-64
2022/04/11 08:13:30;;;;;;;;;;;21.90;28.30;;;;;;463741;256;1141;-64
2022/04/11 08:15:31;;;;;;;;;;;22.00;28.20;;;;;;463712;256;1239;-64
2022/04/11 08:17:33;;;;;;;;;;;22.00;28.20;;;;;;463711;256;1144;-64
2022/04/11 08:19:34;;;;;;;;;;;22.00;28.20;;;;;;463618;256;2198;-64
2022/04/11 08:21:37;;;;;;;;;;;21.90;28.30;;;;;;463619;256;1230;-63
2022/04/11 08:23:37;;;;;;;;;;;22.00;28.30;;;;;;463303;257;1331;-64
2022/04/11 08:25:38;;;;;;;;;;;22.00;28.40;;;;;;463427;256;1452;-64
2022/04/11 08:27:39;;;;;;;;;;;21.90;28.40;;;;;;463586;256;1228;-64
2022/04/11 08:29:41;;;;;;;;;;;21.90;28.40;;;;;;463675;256;1161;-64
2022/04/11 08:31:42;;;;;;;;;;;22.00;28.40;;;;;;463528;256;1376;-64
2022/04/11 08:33:43;;;;;;;;;;;22.00;28.40;;;;;;463564;256;1128;-64
2022/04/11 08:35:45;;;;;;;;;;;21.90;28.60;;;;;;463488;256;1306;-64
2022/04/11 08:37:46;;;;;;;;;;;21.90;28.40;;;;;;463680;256;1390;-64
2022/04/11 08:39:47;;;;;;;;;;;21.90;28.50;;;;;;463758;256;2120;-64
2022/04/11 08:41:48;;;;;;;;;;;21.90;28.60;;;;;;463621;256;1325;-64
2022/04/11 08:43:50;;;;;;;;;;;22.00;28.50;;;;;;463590;256;1167;-64
2022/04/11 08:45:51;;;;;;;;;;;22.00;28.50;;;;;;463580;256;1238;-63
2022/04/11 08:47:53;;;;;;;;;;;22.10;28.50;;;;;;463597;256;1371;-63
2022/04/11 08:49:54;;;;;;;;;;;22.00;28.50;;;;;;463606;256;1092;-64
2022/04/11 08:51:56;;;;;;;;;;;21.90;28.60;;;;;;463574;256;1249;-64
2022/04/11 08:53:57;;;;;;;;;;;21.90;28.60;;;;;;463630;256;1066;-63
2022/04/11 08:55:58;;;;;;;;;;;22.00;28.60;;;;;;463566;256;1221;-64
2022/04/11 08:57:59;;;;;;;;;;;22.10;28.40;;;;;;463618;256;1217;-64
2022/04/11 09:00:01;;;;;;;;;;;22.00;28.60;;;;;;463765;256;2221;-64
2022/04/11 09:02:02;;;;;;;;;;;22.00;28.50;;;;;;463859;256;1180;-64
2022/04/11 09:04:04;;;;;;;;;;;21.90;28.50;;;;;;463730;256;1083;-64
2022/04/11 09:06:05;;;;;;;;;;;21.90;28.60;;;;;;463659;256;1246;-64
2022/04/11 09:08:06;;;;;;;;;;;22.00;28.40;;;;;;463532;256;1130;-64
2022/04/11 09:10:08;;;;;;;;;;;22.00;28.50;;;;;;463596;256;1345;-64
2022/04/11 09:12:09;;;;;;;;;;;22.00;28.60;;;;;;463561;256;1277;-64
2022/04/11 09:14:10;;;;;;;;;;;21.90;28.60;;;;;;463688;256;1221;-64
2022/04/11 09:16:12;;;;;;;;;;;22.00;28.50;;;;;;463734;256;1154;-64
2022/04/11 09:18:13;;;;;;;;;;;21.90;28.60;;;;;;463707;256;1075;-63
2022/04/11 09:20:14;;;;;;;;;;;21.90;28.60;;;;;;463595;256;2202;-63
2022/04/11 09:22:16;;;;;;;;;;;21.90;28.50;;;;;;463598;256;1206;-64
2022/04/11 09:24:19;;;;;;;;;;;22.10;28.50;;;;;;463666;256;1230;-63
2022/04/11 09:26:19;;;;;;;;;;;22.00;28.40;;;;;;463510;256;1369;-63
2022/04/11 09:28:20;;;;;;;;;;;22.00;28.40;;;;;;463568;256;1245;-63
2022/04/11 09:30:21;;;;;;;;;;;22.10;28.40;;;;;;463562;256;1367;-63
2022/04/11 09:32:22;;;;;;;;;;;22.10;28.40;;;;;;463491;256;1187;-63
2022/04/11 09:34:25;;;;;;;;;;;22.10;28.50;;;;;;463719;256;1137;-63
2022/04/11 09:36:25;;;;;;;;;;;22.00;28.50;;;;;;463617;257;1437;-64
2022/04/11 09:38:29;;;;;;;;;;;22.00;28.50;;;;;;463718;256;1119;-63
2022/04/11 09:40:27;;;;;;;;;;;22.10;28.50;;;;;;463670;257;2138;-63
2022/04/11 09:42:29;;;;;;;;;;;22.00;28.50;;;;;;463700;256;1153;-63
2022/04/11 09:44:30;;;;;;;;;;;22.00;28.50;;;;;;463451;256;1114;-63
2022/04/11 09:46:31;;;;;;;;;;;22.00;28.50;;;;;;463329;256;1219;-63
2022/04/11 09:48:35;;;;;;;;;;;22.00;28.50;;;;;;463233;256;1088;-64
2022/04/11 09:50:34;;;;;;;;;;;22.00;28.40;;;;;;463512;257;1568;-63
2022/04/11 09:52:36;;;;;;;;;;;22.00;28.50;;;;;;463606;257;1214;-63
2022/04/11 09:54:37;;;;;;;;;;;21.90;28.50;;;;;;463731;256;1060;-63
2022/04/11 09:56:38;;;;;;;;;;;22.10;28.40;;;;;;463688;256;1200;-64
2022/04/11 09:58:40;;;;;;;;;;;22.10;28.40;;;;;;463789;256;1299;-63
2022/04/11 10:00:41;;;;;;;;;;;22.00;28.40;;;;;;463775;256;2214;-64
2022/04/11 10:02:44;;;;;;;;;;;21.90;28.50;;;;;;463934;256;1140;-64
2022/04/11 10:04:44;;;;;;;;;;;22.00;28.40;;;;;;463757;256;1411;-63
2022/04/11 10:06:45;;;;;;;;;;;22.00;28.20;;;;;;463758;256;1340;-63
2022/04/11 10:08:46;;;;;;;;;;;22.00;28.30;;;;;;463776;256;1102;-63
2022/04/11 10:10:48;;;;;;;;;;;22.10;28.20;;;;;;463746;256;1268;-63
2022/04/11 10:12:49;;;;;;;;;;;22.00;28.20;;;;;;463931;256;1172;-64
2022/04/11 10:14:50;;;;;;;;;;;22.10;28.10;;;;;;463794;256;1088;-64
2022/04/11 10:16:52;;;;;;;;;;;22.10;28.10;;;;;;463802;256;1181;-63
2022/04/11 10:18:53;;;;;;;;;;;22.10;28.10;;;;;;463650;256;1076;-63
2022/04/11 10:20:54;;;;;;;;;;;22.00;28.10;;;;;;463280;256;2206;-63
2022/04/11 10:22:56;;;;;;;;;;;22.00;28.10;;;;;;463430;256;1089;-63
2022/04/11 10:24:57;;;;;;;;;;;22.10;28.00;;;;;;463492;256;1105;-64
2022/04/11 10:26:58;;;;;;;;;;;22.00;28.00;;;;;;463576;256;1297;-64
2022/04/11 10:29:00;;;;;;;;;;;22.00;27.90;;;;;;463406;256;1089;-63
2022/04/11 10:31:01;;;;;;;;;;;22.10;27.90;;;;;;463353;256;1195;-64
2022/04/11 10:33:02;;;;;;;;;;;22.10;28.00;;;;;;463402;256;1188;-63
2022/04/11 10:35:04;;;;;;;;;;;22.10;27.90;;;;;;463443;256;1082;-63
2022/04/11 10:37:05;;;;;;;;;;;22.10;27.80;;;;;;463416;256;1365;-63
2022/04/11 10:39:06;;;;;;;;;;;22.10;27.90;;;;;;463488;256;1065;-63
2022/04/11 10:41:08;;;;;;;;;;;22.10;27.90;;;;;;463502;256;2199;-65
2022/04/11 10:43:09;;;;;;;;;;;22.00;28.00;;;;;;463764;256;1181;-63
2022/04/11 10:45:10;;;;;;;;;;;22.00;28.00;;;;;;463549;256;1075;-63
2022/04/11 10:47:12;;;;;;;;;;;22.10;27.90;;;;;;463344;256;1100;-63
2022/04/11 10:49:13;;;;;;;;;;;22.00;27.90;;;;;;463642;256;1084;-63
2022/04/11 10:51:14;;;;;;;;;;;22.00;27.90;;;;;;463628;256;1127;-64
2022/04/11 10:53:22;;;;;;;;;;;22.00;27.80;;;;;;463725;256;1203;-63
2022/04/11 10:55:18;;;;;;;;;;;22.10;27.70;;;;;;463336;257;1401;-63
2022/04/11 10:57:19;;;;;;;;;;;22.10;27.80;;;;;;463859;256;1169;-63
2022/04/11 10:59:20;;;;;;;;;;;22.00;27.80;;;;;;463630;256;1145;-64
2022/04/11 11:01:21;;;;;;;;;;;22.10;27.70;;;;;;463623;256;2186;-63
2022/04/11 11:03:23;;;;;;;;;;;22.10;27.80;;;;;;463651;256;1246;-63
2022/04/11 11:05:24;;;;;;;;;;;22.00;27.80;;;;;;463612;256;1080;-64
2022/04/11 11:07:26;;;;;;;;;;;22.00;27.80;;;;;;463492;256;1156;-64
2022/04/11 11:09:27;;;;;;;;;;;22.10;27.70;;;;;;463569;256;1059;-63
2022/04/11 11:11:28;;;;;;;;;;;22.10;27.60;;;;;;463679;256;1407;-64
2022/04/11 11:13:30;;;;;;;;;;;22.00;27.70;;;;;;463628;256;1201;-63
2022/04/11 11:15:31;;;;;;;;;;;22.00;27.70;;;;;;463409;256;1088;-63
2022/04/11 11:17:32;;;;;;;;;;;22.10;27.70;;;;;;463542;256;1102;-63
2022/04/11 11:19:34;;;;;;;;;;;22.00;27.80;;;;;;463577;256;1191;-64
2022/04/11 11:21:37;;;;;;;;;;;22.10;27.70;;;;;;463543;256;2194;-64
2022/04/11 11:23:36;;;;;;;;;;;22.10;27.70;;;;;;463631;257;1338;-63
2022/04/11 11:25:38;;;;;;;;;;;22.10;27.60;;;;;;463717;256;1187;-63
2022/04/11 11:27:39;;;;;;;;;;;22.10;27.70;;;;;;463666;256;1217;-63
2022/04/11 11:29:40;;;;;;;;;;;22.10;27.70;;;;;;463585;256;1149;-63
2022/04/11 11:31:42;;;;;;;;;;;22.10;27.80;;;;;;463528;256;1359;-64
2022/04/11 11:33:43;;;;;;;;;;;22.10;27.80;;;;;;463750;256;1100;-63
2022/04/11 11:35:45;;;;;;;;;;;22.10;27.70;;;;;;463658;256;1265;-64
2022/04/11 11:37:46;;;;;;;;;;;22.10;27.80;;;;;;463708;256;1143;-64
2022/04/11 11:39:47;;;;;;;;;;;21.90;27.80;;;;;;463489;256;1240;-63
2022/04/11 11:41:48;;;;;;;;;;;22.00;27.70;;;;;;463580;256;2190;-63
2022/04/11 11:43:50;;;;;;;;;;;22.00;27.70;;;;;;463619;256;1158;-63
2022/04/11 11:45:51;;;;;;;;;;;22.00;27.70;;;;;;463619;256;1120;-63
2022/04/11 11:47:52;;;;;;;;;;;22.00;27.60;;;;;;463621;256;1107;-64
2022/04/11 11:49:54;;;;;;;;;;;22.10;27.70;;;;;;463521;256;1223;-64
2022/04/11 11:51:55;;;;;;;;;;;22.10;27.70;;;;;;463375;256;1611;-64
2022/04/11 11:53:56;;;;;;;;;;;22.00;27.80;;;;;;463662;256;1248;-64
2022/04/11 11:55:58;;;;;;;;;;;22.10;27.70;;;;;;463702;256;1398;-63